Time;durP1;ratioP1;P1;durP2;ratioP2;P2;SDS_P1;SDS_P2;PMS_P1;PMS_P2;Temp;Humidity;BMP_temperature;BMP_pressure;BME280_temperature;BME280_humidity;BME280_pressure;Samples;Min_cycle;Max_cycle;Signal;HPM_P1;HPM_P2
2022/10/28 04:02:22;;;;;;;0.60;0.10;;;16.40;36.40;;;;;;5213178;23;20529;-75
2022/10/28 04:04:51;;;;;;;0.60;0.10;;;16.30;52.70;;;;;;4963520;28;20952;-74
2022/10/28 04:07:19;;;;;;;0.60;0.10;;;16.10;76.20;;;;;;4977190;28;20936;-73
2022/10/28 04:09:48;;;;;;;0.60;0.10;;;16.00;99.00;;;;;;4976948;28;20948;-75
2022/10/28 04:12:16;;;;;;;0.60;0.13;;;15.90;96.70;;;;;;4958742;28;20482;-74
2022/10/28 04:14:44;;;;;;;0.80;0.40;;;15.80;99.00;;;;;;4962909;28;20797;-76
2022/10/28 04:17:12;;;;;;;0.60;0.10;;;15.80;98.90;;;;;;4971855;28;20487;-73
2022/10/28 04:19:41;;;;;;;0.60;0.10;;;15.80;98.90;;;;;;4976645;28;20446;-74
2022/10/28 04:22:09;;;;;;;0.60;0.10;;;15.80;96.70;;;;;;4976312;28;21007;-73
2022/10/28 04:24:36;;;;;;;0.60;0.10;;;15.80;99.90;;;;;;4976545;28;20450;-75
2022/10/28 04:27:04;;;;;;;0.60;0.10;;;15.90;99.90;;;;;;4976305;28;20473;-75
2022/10/28 04:29:32;;;;;;;0.60;0.10;;;15.90;99.90;;;;;;4971089;28;20442;-74
2022/10/28 04:32:00;;;;;;;0.60;0.10;;;15.90;99.90;;;;;;4980768;28;20485;-75
2022/10/28 04:34:28;;;;;;;0.60;0.10;;;16.00;99.90;;;;;;4979991;28;20894;-76
2022/10/28 04:36:57;;;;;;;0.60;0.10;;;16.00;99.90;;;;;;4977176;28;20500;-73
2022/10/28 04:39:25;;;;;;;0.60;0.10;;;16.90;99.90;;;;;;4976535;28;20508;-76
2022/10/28 04:41:52;;;;;;;0.60;0.10;;;16.10;98.20;;;;;;4976633;28;20520;-73
2022/10/28 04:44:22;;;;;;;0.60;0.10;;;16.10;99.40;;;;;;4975903;28;20872;-75
2022/10/28 04:46:50;;;;;;;0.60;0.10;;;16.10;99.20;;;;;;4976427;28;20454;-76
2022/10/28 04:49:17;;;;;;;0.60;0.10;;;16.10;99.10;;;;;;4974314;28;20882;-74
2022/10/28 04:51:45;;;;;;;0.60;0.10;;;16.10;96.80;;;;;;4966202;28;20537;-75
2022/10/28 04:54:19;;;;;;;0.60;0.10;;;16.10;99.10;;;;;;4975413;28;20453;-73
2022/10/28 04:56:47;;;;;;;0.60;0.10;;;16.10;99.10;;;;;;4976198;28;20525;-75
2022/10/28 04:59:15;;;;;;;0.60;0.10;;;16.10;99.10;;;;;;4967459;28;20874;-74
2022/10/28 05:01:42;;;;;;;0.60;0.10;;;16.10;96.80;;;;;;4973806;28;20502;-75
2022/10/28 05:04:10;;;;;;;0.70;0.53;;;16.10;99.20;;;;;;4975738;28;20489;-74
2022/10/28 05:06:38;;;;;;;0.60;0.10;;;16.10;99.20;;;;;;4976125;28;20878;-74
2022/10/28 05:09:06;;;;;;;0.60;0.10;;;16.00;99.00;;;;;;4975468;28;20454;-75
2022/10/28 05:11:39;;;;;;;0.60;0.10;;;16.10;96.80;;;;;;4963783;28;20518;-75
2022/10/28 05:14:06;;;;;;;0.60;0.10;;;16.10;99.10;;;;;;4970390;28;20861;-75
2022/10/28 05:16:34;;;;;;;0.60;0.10;;;16.10;99.30;;;;;;4975741;28;20782;-76
2022/10/28 05:19:02;;;;;;;0.80;0.77;;;16.00;99.10;;;;;;4965861;28;20454;-75
2022/10/28 05:21:30;;;;;;;0.60;0.10;;;16.00;96.90;;;;;;4975021;28;20466;-75
2022/10/28 05:23:58;;;;;;;0.60;0.10;;;16.00;99.10;;;;;;4975315;28;20438;-75
2022/10/28 05:26:26;;;;;;;0.60;0.10;;;16.00;99.00;;;;;;4975733;28;20856;-75
2022/10/28 05:28:55;;;;;;;0.60;0.10;;;16.00;99.10;;;;;;4975583;28;20501;-74
2022/10/28 05:31:23;;;;;;;0.60;0.10;;;15.90;96.70;;;;;;4975404;28;20478;-75
2022/10/28 05:33:50;;;;;;;0.60;0.10;;;16.00;99.20;;;;;;4975166;28;20520;-76
2022/10/28 05:36:21;;;;;;;0.60;0.10;;;16.00;99.90;;;;;;4976459;28;20850;-77
2022/10/28 05:38:48;;;;;;;0.60;0.10;;;15.90;99.90;;;;;;4981290;28;20960;-76
2022/10/28 05:41:16;;;;;;;0.60;0.10;;;15.90;96.80;;;;;;4967560;28;20473;-74
2022/10/28 05:43:44;;;;;;;0.60;0.10;;;15.90;99.10;;;;;;4975367;28;20454;-73
2022/10/28 05:46:13;;;;;;;0.60;0.10;;;15.90;99.90;;;;;;4975761;28;20485;-74
2022/10/28 05:48:41;;;;;;;0.60;0.10;;;15.90;99.90;;;;;;4975101;28;20533;-75
2022/10/28 05:51:09;;;;;;;0.60;0.10;;;16.00;96.80;;;;;;4965948;28;20466;-74
2022/10/28 05:53:37;;;;;;;0.60;0.10;;;16.00;99.10;;;;;;4964750;28;20494;-76
2022/10/28 05:56:05;;;;;;;0.60;0.10;;;15.90;99.00;;;;;;4964403;28;20491;-76
2022/10/28 05:58:32;;;;;;;0.60;0.10;;;15.90;99.10;;;;;;4966805;28;20489;-74
2022/10/28 06:01:00;;;;;;;0.60;0.10;;;15.90;96.90;;;;;;4966260;28;20525;-74
2022/10/28 06:03:32;;;;;;;0.60;0.10;;;15.90;96.80;;;;;;4966109;28;20434;-76
2022/10/28 06:06:00;;;;;;;0.60;0.10;;;15.90;99.10;;;;;;4967966;28;20953;-76
2022/10/28 06:08:29;;;;;;;0.60;0.10;;;15.90;99.00;;;;;;4963964;28;20926;-76
2022/10/28 06:10:57;;;;;;;0.60;0.10;;;15.90;96.70;;;;;;4968551;28;20476;-75
2022/10/28 06:13:26;;;;;;;0.60;0.10;;;15.90;99.10;;;;;;4966263;28;20514;-75
2022/10/28 06:15:54;;;;;;;0.60;0.10;;;15.90;99.00;;;;;;4975737;28;20447;-75
2022/10/28 06:18:23;;;;;;;0.60;0.20;;;15.90;99.00;;;;;;4975245;28;20442;-75
2022/10/28 06:20:56;;;;;;;0.60;0.10;;;15.80;96.70;;;;;;4974334;28;20533;-76
2022/10/28 06:23:26;;;;;;;0.60;0.20;;;15.80;99.10;;;;;;4973808;28;20916;-75
2022/10/28 06:25:57;;;;;;;0.60;0.10;;;15.80;99.00;;;;;;4973726;28;20493;-73
2022/10/28 06:28:26;;;;;;;0.60;0.10;;;15.80;98.90;;;;;;4971580;28;20447;-74
2022/10/28 06:30:54;;;;;;;0.60;0.10;;;15.90;96.80;;;;;;4972153;28;20489;-74
2022/10/28 06:33:22;;;;;;;0.60;0.10;;;15.90;99.20;;;;;;4964928;28;20981;-74
2022/10/28 06:35:49;;;;;;;0.60;0.10;;;15.80;99.00;;;;;;4974313;28;20451;-74
2022/10/28 06:38:19;;;;;;;0.60;0.10;;;15.90;99.00;;;;;;4974267;28;20445;-75
2022/10/28 06:40:47;;;;;;;0.60;0.10;;;15.90;96.80;;;;;;4974186;28;20802;-74
2022/10/28 06:43:20;;;;;;;0.60;0.10;;;15.90;99.20;;;;;;4974374;28;20445;-75
2022/10/28 06:45:52;;;;;;;0.60;0.10;;;15.90;99.10;;;;;;4974940;28;20454;-74
2022/10/28 06:48:20;;;;;;;0.60;0.10;;;16.00;96.80;;;;;;4976219;28;20872;-74
2022/10/28 06:50:48;;;;;;;0.60;0.20;;;16.00;96.80;;;;;;4973799;28;20474;-74
2022/10/28 06:53:16;;;;;;;0.60;0.10;;;16.00;99.20;;;;;;4973596;28;20510;-73
2022/10/28 06:55:52;;;;;;;0.60;0.10;;;16.10;99.20;;;;;;4973674;28;20491;-75
2022/10/28 06:58:20;;;;;;;0.60;0.10;;;16.10;99.20;;;;;;4974606;28;20794;-74
2022/10/28 07:00:48;;;;;;;0.60;0.10;;;16.10;96.90;;;;;;4975527;28;20521;-76
2022/10/28 07:03:17;;;;;;;0.60;0.10;;;16.10;99.20;;;;;;4975309;28;20446;-76
2022/10/28 07:05:46;;;;;;;0.60;0.10;;;16.00;99.20;;;;;;4977930;28;20581;-76
2022/10/28 07:08:15;;;;;;;0.60;0.10;;;16.10;99.20;;;;;;4979588;28;20474;-74
2022/10/28 07:10:52;;;;;;;0.60;0.10;;;16.20;96.90;;;;;;4976568;28;20506;-76
2022/10/28 07:13:20;;;;;;;0.60;0.10;;;16.20;99.20;;;;;;4961879;29;20505;-74
2022/10/28 07:15:51;;;;;;;0.60;0.10;;;16.20;99.30;;;;;;4976632;28;20446;-76
2022/10/28 07:18:19;;;;;;;0.60;0.10;;;16.30;99.20;;;;;;4980975;28;20473;-76
2022/10/28 07:20:47;;;;;;;0.60;0.10;;;16.30;96.90;;;;;;4982844;28;20482;-76
2022/10/28 07:23:16;;;;;;;0.60;0.10;;;16.30;99.30;;;;;;4977549;28;20469;-76
2022/10/28 07:25:52;;;;;;;0.60;0.10;;;16.40;99.20;;;;;;4976811;28;20557;-75
2022/10/28 07:28:21;;;;;;;0.60;0.10;;;16.40;99.20;;;;;;4977920;28;20450;-76
2022/10/28 07:30:49;;;;;;;0.60;0.10;;;16.50;97.00;;;;;;4980000;28;20532;-73
2022/10/28 07:33:19;;;;;;;0.60;0.10;;;16.50;97.00;;;;;;4978132;28;20885;-75
2022/10/28 07:35:47;;;;;;;0.60;0.10;;;16.50;99.40;;;;;;4979444;28;20453;-73
2022/10/28 07:38:15;;;;;;;0.60;0.10;;;16.50;99.20;;;;;;4984281;28;20476;-73
2022/10/28 07:40:45;;;;;;;0.60;0.10;;;16.60;97.00;;;;;;4977495;28;20450;-73
2022/10/28 07:43:12;;;;;;;0.60;0.10;;;16.60;99.40;;;;;;4968689;28;20479;-72
2022/10/28 07:45:41;;;;;;;0.60;0.20;;;16.60;99.30;;;;;;4961707;28;20461;-74
2022/10/28 07:48:09;;;;;;;0.60;0.10;;;16.70;99.30;;;;;;4961288;29;20557;-74
2022/10/28 07:50:48;;;;;;;0.60;0.10;;;16.80;97.00;;;;;;4960903;28;20948;-73
2022/10/28 07:53:17;;;;;;;0.60;0.10;;;16.70;97.00;;;;;;4965180;28;20979;-75
2022/10/28 07:55:55;;;;;;;0.60;0.10;;;16.80;97.10;;;;;;4961383;28;20457;-74
2022/10/28 07:58:23;;;;;;;0.60;0.10;;;16.80;99.40;;;;;;4961246;29;20502;-75
2022/10/28 08:00:51;;;;;;;0.60;0.10;;;16.90;92.90;;;;;;4962765;28;20550;-72
2022/10/28 08:03:19;;;;;;;0.60;0.10;;;16.90;94.80;;;;;;4977521;28;20442;-74
2022/10/28 08:05:47;;;;;;;0.60;0.10;;;16.90;92.20;;;;;;4980119;28;20454;-75
2022/10/28 08:08:17;;;;;;;0.60;0.13;;;17.00;88.60;;;;;;4979829;28;20453;-74
2022/10/28 08:10:46;;;;;;;0.60;0.10;;;17.00;69.80;;;;;;4979658;28;20861;-73
2022/10/28 08:13:14;;;;;;;0.60;0.10;;;17.00;73.80;;;;;;4977620;28;20485;-75
2022/10/28 08:15:44;;;;;;;0.60;0.10;;;17.10;72.00;;;;;;4969604;28;20477;-75
2022/10/28 08:18:11;;;;;;;0.60;0.20;;;17.10;66.60;;;;;;4961441;28;20451;-75
2022/10/28 08:20:42;;;;;;;0.60;0.10;;;17.20;53.40;;;;;;4981763;28;20519;-76
2022/10/28 08:23:12;;;;;;;0.60;0.10;;;17.20;42.20;;;;;;4973056;28;20442;-76
2022/10/28 08:25:50;;;;;;;0.60;0.10;;;17.20;46.40;;;;;;4982615;28;20473;-76
2022/10/28 08:28:18;;;;;;;0.60;0.10;;;17.20;34.10;;;;;;4982139;28;20461;-76
2022/10/28 08:30:46;;;;;;;0.60;0.10;;;17.30;24.10;;;;;;4973882;28;20470;-75
2022/10/28 08:33:24;;;;;;;0.60;0.10;;;17.30;27.60;;;;;;4982546;28;20481;-77
2022/10/28 08:35:52;;;;;;;0.60;0.20;;;17.30;17.90;;;;;;4984134;28;21206;-76
2022/10/28 08:38:20;;;;;;;0.60;0.10;;;17.40;18.90;;;;;;4982308;28;20501;-74
2022/10/28 08:41:02;;;;;;;0.60;0.10;;;17.50;8.10;;;;;;4982280;28;20556;-78
2022/10/28 08:43:45;;;;;;;0.60;0.10;;;17.40;11.40;;;;;;4981799;28;20449;-76
2022/10/28 08:46:38;;;;;;;0.60;0.20;;;17.50;3.80;;;;;;4981369;28;20976;-78
2022/10/28 08:49:12;;;;;;;0.60;0.10;;;17.60;7.80;;;;;;4977017;28;20454;-73
2022/10/28 08:51:45;;;;;;;0.60;0.10;;;17.70;1.00;;;;;;4971822;28;20474;-74
2022/10/28 08:54:17;;;;;;;0.60;0.10;;;17.60;1.00;;;;;;4976173;28;20516;-75
2022/10/28 08:56:48;;;;;;;0.60;0.10;;;17.70;1.00;;;;;;4976607;28;20459;-76
2022/10/28 08:59:21;;;;;;;0.60;0.10;;;17.60;1.00;;;;;;4968592;28;20447;-73
2022/10/28 09:01:52;;;;;;;0.60;0.10;;;17.70;1.00;;;;;;4969105;28;20485;-74
2022/10/28 09:04:35;;;;;;;0.60;0.10;;;17.70;1.00;;;;;;4975643;28;20486;-74
2022/10/28 09:07:05;;;;;;;0.60;0.10;;;17.80;1.00;;;;;;4976530;28;20449;-75
2022/10/28 09:09:33;;;;;;;0.60;0.20;;;17.80;1.00;;;;;;4976905;28;20474;-73
2022/10/28 09:12:15;;;;;;;0.60;0.10;;;17.80;1.00;;;;;;4977757;28;20486;-73
2022/10/28 09:14:51;;;;;;;0.60;0.10;;;;;;;;;;4977444;28;21108;-74
2022/10/28 09:17:22;;;;;;;0.60;0.10;;;18.00;1.00;;;;;;4978019;28;20454;-73
2022/10/28 09:19:51;;;;;;;1.03;1.03;;;18.00;1.00;;;;;;4971129;28;20442;-76
2022/10/28 09:22:25;;;;;;;0.60;0.10;;;18.00;1.00;;;;;;4976539;28;20503;-72
2022/10/28 09:24:56;;;;;;;0.60;0.10;;;18.10;1.00;;;;;;4979298;28;20446;-74
2022/10/28 09:27:48;;;;;;;0.60;0.10;;;18.10;1.00;;;;;;4978313;28;20473;-73
2022/10/28 09:30:30;;;;;;;0.60;0.10;;;18.20;1.00;;;;;;4977756;28;20451;-74
2022/10/28 09:33:08;;;;;;;0.60;0.10;;;18.20;1.00;;;;;;4977174;28;20566;-75
2022/10/28 09:35:41;;;;;;;0.60;0.10;;;18.30;1.00;;;;;;4977916;28;20933;-74
2022/10/28 09:38:18;;;;;;;0.60;0.10;;;18.60;1.00;;;;;;4978042;28;20429;-73
2022/10/28 09:40:52;;;;;;;0.60;0.10;;;18.60;1.00;;;;;;4977820;28;20492;-74
2022/10/28 09:43:30;;;;;;;1.60;1.50;;;18.60;1.00;;;;;;4978495;28;20928;-75
2022/10/28 09:46:03;;;;;;;4.40;4.20;;;18.70;1.00;;;;;;4978396;28;20505;-73
2022/10/28 09:48:33;;;;;;;0.60;0.20;;;18.90;1.00;;;;;;4986102;28;20500;-75
2022/10/28 09:51:02;;;;;;;0.60;0.10;;;19.00;1.00;;;;;;4984961;28;20470;-74
2022/10/28 09:53:41;;;;;;;0.60;0.10;;;19.00;1.00;;;;;;4981320;28;20436;-77
2022/10/28 09:56:10;;;;;;;0.60;0.10;;;19.10;1.00;;;;;;4980142;28;20450;-75
2022/10/28 09:58:46;;;;;;;0.60;0.10;;;19.10;1.00;;;;;;4980845;28;20478;-75
2022/10/28 10:01:15;;;;;;;0.60;0.10;;;19.30;1.00;;;;;;4981037;28;20547;-75
2022/10/28 10:03:44;;;;;;;0.60;0.20;;;19.40;1.00;;;;;;4981743;28;20470;-75
2022/10/28 10:06:13;;;;;;;0.87;0.87;;;19.40;1.00;;;;;;4981189;28;20504;-75
2022/10/28 10:08:43;;;;;;;0.60;0.10;;;19.50;1.00;;;;;;4979757;28;20473;-76
2022/10/28 10:11:16;;;;;;;0.90;0.53;;;19.50;1.00;;;;;;4969167;28;20569;-74
2022/10/28 10:13:46;;;;;;;3.17;2.97;;;19.50;1.00;;;;;;4975012;28;20944;-75
2022/10/28 10:16:19;;;;;;;0.60;0.20;;;19.50;1.00;;;;;;4975978;28;20457;-74
2022/10/28 10:18:51;;;;;;;0.60;0.10;;;19.50;1.00;;;;;;4975582;28;20446;-73
2022/10/28 10:21:44;;;;;;;0.60;0.20;;;19.60;1.00;;;;;;4975419;28;20481;-75
2022/10/28 10:24:32;;;;;;;11.33;4.90;;;19.70;1.00;;;;;;4975345;28;20442;-77
2022/10/28 10:27:02;;;;;;;0.60;0.30;;;19.70;1.00;;;;;;4956167;29;20455;-76
2022/10/28 10:29:31;;;;;;;0.60;0.20;;;19.70;1.00;;;;;;4960602;28;20502;-75
2022/10/28 10:32:16;;;;;;;0.60;0.10;;;19.90;1.00;;;;;;4970105;28;20932;-75
2022/10/28 10:34:48;;;;;;;0.90;0.63;;;19.90;1.00;;;;;;4975348;28;20481;-76
2022/10/28 10:37:22;;;;;;;0.60;0.40;;;20.00;1.00;;;;;;4974917;28;20458;-75
2022/10/28 10:40:05;;;;;;;0.60;0.10;;;20.10;1.00;;;;;;4973858;28;20450;-74
2022/10/28 10:42:33;;;;;;;0.60;0.10;;;20.10;1.00;;;;;;4965235;28;20459;-73
2022/10/28 10:45:25;;;;;;;1.23;0.50;;;20.20;1.00;;;;;;4966017;28;20430;-75
2022/10/28 10:48:13;;;;;;;0.60;0.10;;;20.20;1.00;;;;;;4967428;28;20912;-75
2022/10/28 10:50:43;;;;;;;1.73;1.07;;;20.40;1.00;;;;;;4977132;28;20430;-77
2022/10/28 10:53:21;;;;;;;0.60;0.10;;;20.40;1.00;;;;;;4977451;28;20443;-76
2022/10/28 10:55:51;;;;;;;0.60;0.10;;;20.60;1.00;;;;;;4980515;28;21004;-77
2022/10/28 10:58:22;;;;;;;0.60;0.10;;;20.60;1.00;;;;;;4977686;28;20454;-77
2022/10/28 11:00:51;;;;;;;0.60;0.10;;;20.70;1.00;;;;;;4979163;28;20524;-78
2022/10/28 11:03:24;;;;;;;0.60;0.20;;;20.70;1.00;;;;;;4979503;28;20453;-77
2022/10/28 11:05:55;;;;;;;0.60;0.10;;;20.80;1.00;;;;;;4979277;28;20457;-78
2022/10/28 11:08:44;;;;;;;0.60;0.10;;;20.90;1.00;;;;;;4978747;28;20580;-78
2022/10/28 11:11:18;;;;;;;0.60;0.10;;;21.00;1.00;;;;;;4978391;28;20998;-79
2022/10/28 11:13:47;;;;;;;0.60;0.20;;;21.00;1.00;;;;;;4979730;28;20516;-77
2022/10/28 11:16:20;;;;;;;0.60;0.20;;;21.00;1.00;;;;;;4981637;28;20860;-78
2022/10/28 11:18:50;;;;;;;0.60;0.20;;;21.00;1.00;;;;;;4980317;28;20489;-76
2022/10/28 11:21:46;;;;;;;0.60;0.10;;;21.00;1.00;;;;;;4980092;28;20470;-76
2022/10/28 11:24:32;;;;;;;0.60;0.10;;;21.10;1.00;;;;;;4977273;28;20953;-76
2022/10/28 11:27:07;;;;;;;0.60;0.20;;;21.10;1.00;;;;;;4974318;28;20505;-77
2022/10/28 11:29:35;;;;;;;0.60;0.20;;;21.20;1.00;;;;;;4975592;28;20505;-75
2022/10/28 11:32:14;;;;;;;44.23;11.87;;;21.40;1.00;;;;;;4976851;28;20470;-76
2022/10/28 11:35:06;;;;;;;0.60;0.10;;;21.50;1.00;;;;;;4979671;28;20485;-78
2022/10/28 11:37:51;;;;;;;8.27;4.80;;;21.60;1.00;;;;;;4979403;28;20453;-77
2022/10/28 11:40:31;;;;;;;0.60;0.20;;;21.70;1.00;;;;;;4977284;28;20458;-78
2022/10/28 11:43:17;;;;;;;1.03;0.40;;;21.70;1.00;;;;;;4979192;28;20438;-77
2022/10/28 11:45:52;;;;;;;0.60;0.20;;;21.70;1.00;;;;;;4987255;28;20446;-78
2022/10/28 11:48:34;;;;;;;0.60;0.13;;;21.70;1.00;;;;;;4989845;28;20477;-77
2022/10/28 11:51:20;;;;;;;1.50;1.40;;;21.90;1.00;;;;;;4989088;28;20473;-78
2022/10/28 11:54:13;;;;;;;0.60;0.10;;;21.90;1.00;;;;;;4981789;28;20438;-79
2022/10/28 11:56:48;;;;;;;0.60;0.10;;;22.00;1.00;;;;;;4975062;28;20478;-79
2022/10/28 11:59:50;;;;;;;0.80;0.40;;;22.10;1.00;;;;;;4980071;28;20433;-78
2022/10/28 12:02:34;;;;;;;0.60;0.10;;;22.10;1.00;;;;;;4978481;28;20486;-78
2022/10/28 12:05:11;;;;;;;0.60;0.10;;;22.20;1.00;;;;;;4978829;28;20509;-78
2022/10/28 12:07:51;;;;;;;0.60;0.10;;;22.20;1.00;;;;;;4966193;28;20435;-76
2022/10/28 12:10:34;;;;;;;0.60;0.13;;;22.30;1.00;;;;;;4981443;28;20452;-77
2022/10/28 12:13:10;;;;;;;0.60;0.10;;;22.30;1.00;;;;;;4976340;28;20497;-76
2022/10/28 12:15:46;;;;;;;0.60;0.10;;;22.30;1.00;;;;;;4974781;28;20486;-76
2022/10/28 12:18:21;;;;;;;0.60;0.10;;;22.30;1.00;;;;;;4974209;28;20457;-77
2022/10/28 12:20:54;;;;;;;0.60;0.10;;;22.30;1.00;;;;;;4975160;28;20445;-75
2022/10/28 12:23:24;;;;;;;0.60;0.20;;;22.30;1.00;;;;;;4963349;28;20451;-76
2022/10/28 12:25:56;;;;;;;0.60;0.20;;;22.40;1.00;;;;;;4960579;29;20868;-76
2022/10/28 12:28:31;;;;;;;0.60;0.10;;;22.40;1.00;;;;;;4979353;28;20450;-76
2022/10/28 12:31:01;;;;;;;0.60;0.10;;;22.60;1.00;;;;;;4988381;28;20492;-76
2022/10/28 12:33:34;;;;;;;0.60;0.10;;;22.60;1.00;;;;;;4986453;28;20446;-75
2022/10/28 12:36:18;;;;;;;0.60;0.10;;;22.60;1.00;;;;;;4981126;28;20481;-75
2022/10/28 12:38:51;;;;;;;0.60;0.10;;;22.70;1.00;;;;;;4979344;28;20817;-75
2022/10/28 12:41:23;;;;;;;0.60;0.17;;;22.70;1.00;;;;;;4977987;28;20833;-77
2022/10/28 12:43:56;;;;;;;0.60;0.10;;;22.70;1.00;;;;;;4977186;28;20517;-75
2022/10/28 12:46:34;;;;;;;0.60;0.10;;;22.70;1.00;;;;;;4978514;28;20434;-78
2022/10/28 12:49:09;;;;;;;0.60;0.10;;;22.70;1.00;;;;;;4978385;28;20589;-75
2022/10/28 12:51:40;;;;;;;0.60;0.10;;;22.80;1.00;;;;;;4978474;28;20486;-76
2022/10/28 12:54:18;;;;;;;0.60;0.10;;;22.80;1.00;;;;;;4978204;28;20450;-78
2022/10/28 12:56:51;;;;;;;0.60;0.20;;;22.90;1.00;;;;;;4978794;28;20528;-75
2022/10/28 12:59:29;;;;;;;0.80;0.70;;;23.00;1.00;;;;;;4977302;28;20442;-74
2022/10/28 13:01:59;;;;;;;0.60;0.10;;;23.00;1.00;;;;;;4983711;28;21039;-76
2022/10/28 13:04:28;;;;;;;0.60;0.10;;;23.00;1.00;;;;;;4981074;28;20805;-76
2022/10/28 13:07:18;;;;;;;0.60;0.10;;;23.00;1.00;;;;;;4977464;28;20442;-75
2022/10/28 13:09:57;;;;;;;0.80;0.50;;;23.10;1.00;;;;;;4957340;29;20451;-75
2022/10/28 13:12:58;;;;;;;0.60;0.20;;;23.00;1.00;;;;;;4957915;28;20459;-75
2022/10/28 13:15:52;;;;;;;0.90;0.57;;;23.00;1.00;;;;;;4956169;29;20490;-76
2022/10/28 13:18:51;;;;;;;0.60;0.10;;;23.10;1.00;;;;;;4966716;28;20505;-76
2022/10/28 13:21:30;;;;;;;0.60;0.30;;;23.00;1.00;;;;;;4957619;29;20798;-75
2022/10/28 13:24:10;;;;;;;0.60;0.10;;;23.00;1.00;;;;;;4967721;28;20793;-75
2022/10/28 13:26:42;;;;;;;0.70;0.30;;;23.00;1.00;;;;;;4976576;28;20449;-76
2022/10/28 13:29:20;;;;;;;0.60;0.20;;;23.00;1.00;;;;;;4976754;28;20446;-75
2022/10/28 13:31:50;;;;;;;0.60;0.13;;;23.00;1.00;;;;;;4976528;28;21014;-75
2022/10/28 13:34:21;;;;;;;5.30;4.77;;;23.00;1.00;;;;;;4976685;28;20454;-75
2022/10/28 13:36:58;;;;;;;0.90;0.90;;;23.00;1.00;;;;;;4977517;28;20474;-78
2022/10/28 13:39:41;;;;;;;0.60;0.20;;;23.00;1.00;;;;;;4977168;28;20548;-77
2022/10/28 13:42:44;;;;;;;0.80;0.53;;;23.00;1.00;;;;;;4976204;28;20806;-76
2022/10/28 13:45:47;;;;;;;0.70;0.30;;;23.00;1.00;;;;;;4976332;28;20462;-75
2022/10/28 13:48:49;;;;;;;0.60;0.20;;;23.10;1.00;;;;;;4976409;28;20820;-75
2022/10/28 13:51:33;;;;;;;0.60;0.20;;;23.20;1.00;;;;;;4976316;28;20837;-75
2022/10/28 13:54:01;;;;;;;0.60;0.10;;;23.20;1.00;;;;;;4974029;28;20446;-75
2022/10/28 13:56:47;;;;;;;1.73;1.50;;;23.30;1.00;;;;;;4978311;28;20849;-76
2022/10/28 13:59:26;;;;;;;0.60;0.10;;;23.20;1.00;;;;;;4978054;28;20541;-74
2022/10/28 14:01:57;;;;;;;0.70;0.30;;;23.10;1.00;;;;;;4957927;28;20486;-75
2022/10/28 14:04:38;;;;;;;0.60;0.10;;;23.00;1.00;;;;;;4957629;29;20519;-76
2022/10/28 14:07:20;;;;;;;1.27;0.73;;;22.90;1.00;;;;;;4957275;29;20526;-75
2022/10/28 14:09:53;;;;;;;0.60;0.10;;;22.70;1.00;;;;;;4956758;29;20910;-74
2022/10/28 14:12:27;;;;;;;0.60;0.17;;;22.60;1.00;;;;;;4974785;28;20470;-75
2022/10/28 14:15:12;;;;;;;0.60;0.10;;;22.60;1.00;;;;;;4975747;28;20439;-77
2022/10/28 14:17:42;;;;;;;0.60;0.13;;;22.60;1.00;;;;;;4974987;28;20508;-74
2022/10/28 14:20:33;;;;;;;0.60;0.10;;;22.60;1.00;;;;;;4975393;28;20450;-75
2022/10/28 14:23:00;;;;;;;0.60;0.10;;;22.70;1.00;;;;;;4975480;28;20446;-75
2022/10/28 14:25:59;;;;;;;0.60;0.10;;;22.70;1.00;;;;;;4976039;28;20481;-76
2022/10/28 14:28:50;;;;;;;0.60;0.10;;;22.80;1.00;;;;;;4973119;28;20860;-75
2022/10/28 14:31:41;;;;;;;0.60;0.10;;;22.80;1.00;;;;;;4965210;28;21002;-75
2022/10/28 14:34:36;;;;;;;0.60;0.20;;;22.80;1.00;;;;;;4976808;28;20528;-77
2022/10/28 14:37:32;;;;;;;0.60;0.10;;;22.80;1.00;;;;;;4975932;28;20897;-77
2022/10/28 14:40:22;;;;;;;0.60;0.10;;;22.70;1.00;;;;;;4975945;28;20434;-77
2022/10/28 14:43:05;;;;;;;0.60;0.10;;;22.70;1.00;;;;;;4976926;28;20478;-76
2022/10/28 14:45:41;;;;;;;0.60;0.20;;;22.70;1.00;;;;;;4976522;28;20446;-77
2022/10/28 14:48:26;;;;;;;0.60;0.10;;;22.70;1.00;;;;;;4977103;28;20446;-75
2022/10/28 14:50:56;;;;;;;0.60;0.13;;;22.60;1.00;;;;;;4976276;28;20485;-78
2022/10/28 14:53:30;;;;;;;0.60;0.27;;;22.60;1.00;;;;;;4976120;28;20449;-77
2022/10/28 14:56:01;;;;;;;0.60;0.10;;;22.50;1.00;;;;;;4982154;28;20466;-76
2022/10/28 14:58:34;;;;;;;0.60;0.20;;;22.50;1.00;;;;;;4982717;28;20454;-76
2022/10/28 15:01:18;;;;;;;0.60;0.20;;;22.50;1.00;;;;;;4983327;28;21016;-77
2022/10/28 15:03:48;;;;;;;1.30;1.20;;;22.40;1.00;;;;;;4982458;28;20513;-76
2022/10/28 15:06:25;;;;;;;0.60;0.10;;;22.40;1.00;;;;;;4983401;28;20465;-78
2022/10/28 15:08:55;;;;;;;0.60;0.20;;;22.30;1.00;;;;;;4981810;28;20446;-78
2022/10/28 15:11:23;;;;;;;0.60;0.10;;;22.20;1.00;;;;;;4983716;28;21071;-78
2022/10/28 15:13:53;;;;;;;0.60;0.30;;;22.20;1.00;;;;;;4979820;28;20447;-76
2022/10/28 15:16:22;;;;;;;1.23;1.13;;;22.20;1.00;;;;;;4965873;29;20459;-76
2022/10/28 15:18:52;;;;;;;0.60;0.10;;;22.10;1.00;;;;;;4958640;29;20497;-75
2022/10/28 15:21:22;;;;;;;0.60;0.10;;;22.10;1.00;;;;;;4956194;29;20534;-74
2022/10/28 15:24:03;;;;;;;1.20;0.40;;;22.10;1.00;;;;;;4959156;28;20455;-77
2022/10/28 15:26:31;;;;;;;0.60;0.10;;;22.10;1.00;;;;;;4976090;28;20446;-77
2022/10/28 15:29:00;;;;;;;0.60;0.10;;;22.10;1.00;;;;;;4974976;28;20996;-75
2022/10/28 15:31:28;;;;;;;0.60;0.10;;;22.10;1.00;;;;;;4975029;28;20473;-77
2022/10/28 15:33:56;;;;;;;1.10;0.70;;;22.10;1.00;;;;;;4975315;28;20489;-77
2022/10/28 15:36:25;;;;;;;0.60;0.10;;;22.10;1.00;;;;;;4975232;28;20457;-76
2022/10/28 15:39:07;;;;;;;4.40;0.83;;;22.10;1.00;;;;;;4975371;28;20450;-76
2022/10/28 15:41:43;;;;;;;0.60;0.10;;;22.00;1.00;;;;;;4976355;28;20473;-74
2022/10/28 15:44:34;;;;;;;0.60;0.27;;;22.00;1.00;;;;;;4974561;28;20925;-74
2022/10/28 15:47:15;;;;;;;0.60;0.10;;;22.00;1.00;;;;;;4975866;28;20442;-76
2022/10/28 15:49:45;;;;;;;0.63;0.30;;;21.90;1.00;;;;;;4975289;28;20886;-75
2022/10/28 15:52:32;;;;;;;0.60;0.10;;;21.90;1.00;;;;;;4975548;28;20553;-75
2022/10/28 15:55:03;;;;;;;1.53;1.43;;;21.90;1.00;;;;;;4975783;28;20513;-75
2022/10/28 15:57:45;;;;;;;0.60;0.10;;;21.90;1.00;;;;;;4978330;28;20481;-75
2022/10/28 16:00:22;;;;;;;0.60;0.20;;;21.90;1.00;;;;;;4981492;28;20430;-75
2022/10/28 16:02:54;;;;;;;1.57;1.47;;;21.80;1.00;;;;;;4980114;28;20485;-75
2022/10/28 16:05:53;;;;;;;0.60;0.17;;;21.80;1.00;;;;;;4970688;28;20446;-75
2022/10/28 16:08:24;;;;;;;0.70;0.33;;;21.70;1.00;;;;;;4964168;29;20505;-75
2022/10/28 16:10:56;;;;;;;0.60;0.10;;;21.60;1.00;;;;;;4977283;28;20521;-75
2022/10/28 16:13:27;;;;;;;0.60;0.10;;;21.60;1.00;;;;;;4986392;28;20841;-75
2022/10/28 16:15:58;;;;;;;0.60;0.20;;;21.60;1.00;;;;;;4981376;28;20469;-75
2022/10/28 16:18:28;;;;;;;0.60;0.10;;;21.50;1.00;;;;;;4985175;28;20509;-77
2022/10/28 16:20:58;;;;;;;0.60;0.10;;;21.40;1.00;;;;;;4992705;28;20532;-75
2022/10/28 16:23:33;;;;;;;0.60;0.10;;;21.40;1.00;;;;;;4991965;28;20450;-76
2022/10/28 16:26:02;;;;;;;0.60;0.10;;;21.40;1.00;;;;;;4981680;28;20956;-76
2022/10/28 16:28:31;;;;;;;0.60;0.17;;;21.40;1.00;;;;;;4982063;28;20886;-76
2022/10/28 16:31:00;;;;;;;0.60;0.10;;;21.30;1.00;;;;;;4979846;28;20504;-75
2022/10/28 16:33:31;;;;;;;0.60;0.10;;;21.30;1.00;;;;;;4970565;28;20454;-78
2022/10/28 16:36:00;;;;;;;0.60;0.20;;;21.20;1.00;;;;;;4980238;28;20454;-74
2022/10/28 16:38:28;;;;;;;0.60;0.20;;;21.10;1.00;;;;;;4980456;28;21018;-76
2022/10/28 16:40:57;;;;;;;0.60;0.13;;;21.00;1.00;;;;;;4980042;28;20521;-76
2022/10/28 16:43:28;;;;;;;4.70;1.83;;;21.00;1.00;;;;;;4980103;28;20969;-76
2022/10/28 16:45:58;;;;;;;0.60;0.30;;;21.10;1.00;;;;;;4980065;28;20474;-75
2022/10/28 16:48:27;;;;;;;0.60;0.10;;;21.10;1.00;;;;;;4980565;28;20446;-75
2022/10/28 16:50:59;;;;;;;1.00;0.90;;;21.10;1.00;;;;;;4978631;28;20462;-75
2022/10/28 16:53:27;;;;;;;0.70;0.47;;;21.10;1.00;;;;;;4979089;28;20423;-75
2022/10/28 16:55:57;;;;;;;0.60;0.20;;;21.10;1.00;;;;;;4978619;28;20845;-77
2022/10/28 16:58:27;;;;;;;0.60;0.10;;;21.10;1.00;;;;;;4980111;28;20532;-77
2022/10/28 17:00:55;;;;;;;0.60;0.10;;;21.10;1.00;;;;;;4976514;28;20513;-75
2022/10/28 17:03:23;;;;;;;0.70;0.20;;;21.10;1.00;;;;;;4978400;28;20430;-76
2022/10/28 17:05:51;;;;;;;1.20;0.40;;;21.10;1.00;;;;;;4973920;28;20953;-77
2022/10/28 17:08:18;;;;;;;0.67;0.23;;;21.10;1.00;;;;;;4958903;28;20451;-76
2022/10/28 17:11:06;;;;;;;0.60;0.20;;;21.00;1.00;;;;;;4958481;29;20470;-76
2022/10/28 17:13:35;;;;;;;0.60;0.10;;;21.00;1.00;;;;;;4957207;29;20489;-76
2022/10/28 17:16:03;;;;;;;1.57;0.50;;;21.00;1.00;;;;;;4959533;29;20439;-76
2022/10/28 17:18:31;;;;;;;0.60;0.10;;;21.00;1.00;;;;;;4958202;29;20538;-77
2022/10/28 17:21:00;;;;;;;0.60;0.10;;;21.00;1.00;;;;;;4975600;28;20481;-76
2022/10/28 17:23:28;;;;;;;0.60;0.10;;;21.00;1.00;;;;;;4976733;28;20446;-76
2022/10/28 17:25:57;;;;;;;1.33;0.63;;;21.00;1.00;;;;;;4976816;28;20943;-76
2022/10/28 17:28:24;;;;;;;0.60;0.10;;;21.00;1.00;;;;;;4977447;28;20446;-77